Time;durP1;ratioP1;P1;durP2;ratioP2;P2;SDS_P1;SDS_P2;PMS_P1;PMS_P2;Temp;Humidity;BMP_temperature;BMP_pressure;BME280_temperature;BME280_humidity;BME280_pressure;Samples;Min_cycle;Max_cycle;Signal;HPM_P1;HPM_P2
2022/12/25 00:00:32;;;;;;;9.60;6.20;;;;;;;5.26;99.26;96761.17;105609;1289;22452;-85
2022/12/25 00:03:27;;;;;;;11.60;5.50;;;;;;;5.25;99.10;96761.60;105640;1284;22462;-86
2022/12/25 00:06:10;;;;;;;12.10;6.40;;;;;;;5.26;99.14;96765.34;105667;1284;22996;-86
2022/12/25 00:08:51;;;;;;;11.70;6.50;;;;;;;5.26;99.28;96764.25;101701;1285;5451243;-85
2022/12/25 00:11:24;;;;;;;15.90;7.10;;;;;;;5.27;99.08;96766.36;105535;1287;22466;-86
2022/12/25 00:14:10;;;;;;;10.90;6.30;;;;;;;5.29;99.17;96775.27;105700;1284;25621;-86
2022/12/25 00:16:53;;;;;;;11.30;6.50;;;;;;;5.27;99.00;96778.81;105633;1284;49738;-86
2022/12/25 00:19:35;;;;;;;11.90;5.90;;;;;;;5.25;99.01;96784.41;104360;1289;1714539;-86
2022/12/25 00:22:14;;;;;;;11.90;6.40;;;;;;;5.22;99.14;96788.16;105621;1279;22514;-86
2022/12/25 00:24:56;;;;;;;10.00;6.50;;;;;;;5.23;99.23;96788.06;105659;1288;22472;-86
2022/12/25 00:27:31;;;;;;;13.40;6.20;;;;;;;5.22;99.17;96790.27;105493;1288;74678;-85
2022/12/25 00:30:06;;;;;;;11.80;6.70;;;;;;;5.21;99.28;96797.33;105701;1289;22508;-85
2022/12/25 00:32:44;;;;;;;11.10;6.10;;;;;;;5.22;99.27;96799.14;105571;1281;25412;-86
2022/12/25 00:35:15;;;;;;;11.00;5.90;;;;;;;5.22;99.26;96804.60;105611;1303;25207;-86
2022/12/25 00:37:46;;;;;;;11.90;6.40;;;;;;;5.20;99.28;96808.55;105459;1303;68187;-85
2022/12/25 00:40:17;;;;;;;9.60;5.40;;;;;;;5.19;99.23;96807.11;105593;1303;25228;-85
2022/12/25 00:42:52;;;;;;;10.30;5.50;;;;;;;5.19;99.34;96813.21;105550;1303;22582;-83
2022/12/25 00:45:29;;;;;;;9.60;5.20;;;;;;;5.20;99.48;96817.76;105570;1300;23007;-84
2022/12/25 00:48:03;;;;;;;10.10;5.40;;;;;;;5.23;99.67;96819.80;105364;1295;86306;-84
2022/12/25 00:50:35;;;;;;;10.70;6.40;;;;;;;5.25;99.53;96820.68;105511;1289;24327;-83
2022/12/25 00:53:10;;;;;;;10.70;6.20;;;;;;;5.26;99.44;96823.54;105489;1303;26081;-86
2022/12/25 00:55:42;;;;;;;10.80;5.70;;;;;;;5.25;99.32;96833.66;105492;1298;22463;-86
2022/12/25 00:58:15;;;;;;;9.90;6.00;;;;;;;5.24;99.31;96835.39;105326;1280;87929;-86
2022/12/25 01:00:47;;;;;;;14.20;6.30;;;;;;;5.23;99.48;96836.27;105519;1294;25217;-87
2022/12/25 01:03:21;;;;;;;12.20;6.60;;;;;;;5.24;99.51;96840.90;105484;1303;22504;-87
2022/12/25 01:05:59;;;;;;;11.80;5.70;;;;;;;5.24;99.45;96842.91;105511;1281;22465;-86
2022/12/25 01:08:33;;;;;;;11.90;5.30;;;;;;;5.23;99.58;96851.88;105410;1302;37709;-85
2022/12/25 01:11:08;;;;;;;8.30;4.80;;;;;;;5.24;99.71;96859.52;105563;1303;22520;-85
2022/12/25 01:13:40;;;;;;;9.00;4.30;;;;;;;5.28;99.84;96862.79;105550;1298;22527;-85
2022/12/25 01:16:13;;;;;;;7.60;3.90;;;;;;;5.30;99.85;96858.40;105515;1295;22452;-86
2022/12/25 01:18:45;;;;;;;9.30;4.20;;;;;;;5.32;99.78;96859.58;105411;1280;64472;-86
2022/12/25 01:21:21;;;;;;;10.40;4.30;;;;;;;5.36;99.80;96858.18;105508;1303;22451;-86
2022/12/25 01:23:56;;;;;;;7.90;3.90;;;;;;;5.41;99.80;96863.83;105505;1303;22599;-88
2022/12/25 01:26:37;;;;;;;8.80;4.40;;;;;;;5.41;99.69;96868.67;105456;1302;117211;-86
2022/12/25 01:29:11;;;;;;;10.70;4.80;;;;;;;5.40;99.67;96871.44;105550;1286;65394;-87
2022/12/25 01:31:47;;;;;;;11.50;5.20;;;;;;;5.38;99.77;96875.10;105676;1303;22548;-86
2022/12/25 01:34:18;;;;;;;11.40;5.20;;;;;;;5.34;99.76;96873.23;105698;1303;23322;-87
2022/12/25 01:36:49;;;;;;;10.10;5.00;;;;;;;5.32;99.77;96874.20;105633;1289;27348;-88
2022/12/25 01:39:23;;;;;;;9.40;5.20;;;;;;;5.32;99.66;96876.88;105522;1303;70889;-88
2022/12/25 01:41:55;;;;;;;10.00;5.60;;;;;;;5.30;99.87;96879.32;105559;1297;22470;-88
2022/12/25 01:45:01;;;;;;;11.10;4.50;;;;;;;5.27;99.74;96884.21;105523;1297;22475;-87
2022/12/25 01:47:37;;;;;;;11.00;4.60;;;;;;;5.28;99.95;96883.17;104092;1295;1805376;-87
2022/12/25 01:50:15;;;;;;;9.60;4.30;;;;;;;5.29;99.94;96883.87;105445;1303;22608;-87
2022/12/25 01:52:50;;;;;;;8.50;4.90;;;;;;;5.30;100.00;96880.69;105490;1303;22606;-86
2022/12/25 01:55:24;;;;;;;11.30;5.00;;;;;;;5.30;99.99;96881.52;105515;1296;24396;-87
2022/12/25 01:57:56;;;;;;;8.80;4.50;;;;;;;5.31;100.00;96881.91;105350;1303;121260;-86
2022/12/25 02:00:30;;;;;;;9.10;4.40;;;;;;;5.31;99.99;96882.91;105485;1297;22532;-87
2022/12/25 02:03:02;;;;;;;8.10;4.60;;;;;;;5.32;99.98;96877.09;105504;1303;22656;-87
2022/12/25 02:05:36;;;;;;;8.30;4.70;;;;;;;5.30;99.93;96875.90;105500;1302;22475;-87
2022/12/25 02:08:12;;;;;;;11.00;5.00;;;;;;;5.30;99.93;96876.27;103539;1295;2661787;-87
2022/12/25 02:10:46;;;;;;;8.10;4.70;;;;;;;5.29;99.97;96878.15;105530;1297;22456;-87
2022/12/25 02:13:21;;;;;;;10.00;5.20;;;;;;;5.28;99.97;96878.40;105716;1303;25427;-87
2022/12/25 02:16:01;;;;;;;9.50;4.90;;;;;;;5.26;99.98;96886.98;105548;1303;22460;-86
2022/12/25 02:18:40;;;;;;;11.20;4.70;;;;;;;5.23;100.00;96891.45;105559;1302;60362;-85
2022/12/25 02:21:45;;;;;;;11.00;5.00;;;;;;;5.24;100.00;96894.89;105512;1303;22486;-86
2022/12/25 02:24:37;;;;;;;10.10;3.90;;;;;;;5.25;100.00;96900.54;105517;1303;22507;-85
2022/12/25 02:27:23;;;;;;;8.20;4.50;;;;;;;5.25;100.00;96905.05;105413;1303;79850;-85
2022/12/25 02:30:02;;;;;;;10.00;5.00;;;;;;;5.24;100.00;96904.77;105496;1289;22553;-85
2022/12/25 02:32:44;;;;;;;8.70;3.90;;;;;;;5.25;100.00;96903.54;105451;1303;22795;-85
2022/12/25 02:35:27;;;;;;;7.20;3.60;;;;;;;5.29;100.00;96907.89;105708;1303;22514;-85
2022/12/25 02:38:13;;;;;;;9.40;4.20;;;;;;;5.31;100.00;96910.03;103923;1302;2274634;-85
2022/12/25 02:40:53;;;;;;;9.60;4.50;;;;;;;5.30;100.00;96911.95;105588;1297;22495;-85
2022/12/25 03:07:12;;;;;;;10.70;4.10;;;;;;;5.31;100.00;96925.17;104294;1281;1845165;-84
2022/12/25 03:12:48;;;;;;;9.80;4.40;;;;;;;5.30;100.00;96927.11;105725;1281;23313;-85
2022/12/25 03:18:13;;;;;;;8.90;4.30;;;;;;;5.26;100.00;96925.42;105596;1289;25582;-86
2022/12/25 03:26:55;;;;;;;6.80;4.00;;;;;;;5.28;100.00;96923.03;105713;1288;24648;-86
2022/12/25 03:32:37;;;;;;;8.10;4.20;;;;;;;5.27;100.00;96928.85;105647;1281;22512;-85
2022/12/25 03:35:24;;;;;;;8.60;4.30;;;;;;;5.28;100.00;96932.34;105670;1294;22473;-85
2022/12/25 04:37:13;;;;;;;9.20;4.00;;;;;;;5.17;100.00;96964.65;105660;1284;54405;-85
2022/12/25 04:39:56;;;;;;;9.80;4.40;;;;;;;5.19;100.00;96971.63;105598;1295;68379;-86
2022/12/25 04:42:28;;;;;;;7.50;4.20;;;;;;;5.19;100.00;96978.46;105624;1281;22473;-85
2022/12/25 04:44:59;;;;;;;7.80;4.10;;;;;;;5.18;100.00;96979.66;105715;1288;22533;-85
2022/12/25 04:47:31;;;;;;;8.90;4.30;;;;;;;5.21;100.00;96983.77;104261;1288;1746078;-84
2022/12/25 04:50:03;;;;;;;8.60;4.00;;;;;;;5.22;100.00;96983.70;105672;1294;22516;-84
2022/12/25 04:52:39;;;;;;;8.30;4.50;;;;;;;5.24;100.00;96986.05;104762;1282;1304809;-83
2022/12/25 04:55:14;;;;;;;11.20;5.00;;;;;;;5.22;100.00;96989.48;105792;1287;22460;-85
2022/12/25 04:57:47;;;;;;;11.60;4.50;;;;;;;5.19;100.00;96990.88;105505;1288;40485;-84
2022/12/25 05:00:21;;;;;;;9.90;4.90;;;;;;;5.15;100.00;96998.64;105514;1288;22454;-85
2022/12/25 05:02:52;;;;;;;7.20;4.40;;;;;;;5.12;100.00;96996.01;105685;1279;22448;-85
2022/12/25 05:05:25;;;;;;;8.10;4.60;;;;;;;5.12;100.00;96996.58;105672;1295;24478;-85
2022/12/25 05:07:57;;;;;;;5.70;4.10;;;;;;;5.12;100.00;96996.27;105607;1288;23357;-85
2022/12/25 05:10:29;;;;;;;7.80;4.80;;;;;;;5.14;100.00;96998.15;105661;1295;22519;-85
2022/12/25 05:13:03;;;;;;;7.20;4.30;;;;;;;5.14;100.00;97002.84;105668;1289;22487;-85
2022/12/25 05:15:34;;;;;;;9.30;4.80;;;;;;;5.14;100.00;97003.60;105690;1286;22498;-85
2022/12/25 05:18:06;;;;;;;6.80;4.00;;;;;;;5.16;100.00;97005.49;105512;1279;103704;-85
2022/12/25 05:20:39;;;;;;;7.60;4.10;;;;;;;5.20;100.00;97001.73;105660;1282;25420;-85
2022/12/25 05:23:13;;;;;;;7.70;4.20;;;;;;;5.21;100.00;96998.61;105670;1281;25329;-85
2022/12/25 05:25:47;;;;;;;6.40;3.50;;;;;;;5.25;100.00;97000.63;105727;1281;22880;-86
2022/12/25 05:28:23;;;;;;;6.50;3.50;;;;;;;5.31;100.00;97002.73;105564;1281;29996;-86
2022/12/25 05:30:57;;;;;;;7.00;3.90;;;;;;;5.34;100.00;97001.96;105651;1281;25315;-88
2022/12/25 05:33:31;;;;;;;8.50;3.80;;;;;;;5.38;100.00;96997.61;105703;1275;25407;-86
2022/12/25 05:36:09;;;;;;;6.50;3.40;;;;;;;5.42;100.00;97003.19;105705;1281;22464;-88
2022/12/25 05:38:42;;;;;;;8.80;3.90;;;;;;;5.44;100.00;97007.38;105492;1281;153602;-86
2022/12/25 05:41:15;;;;;;;6.50;3.40;;;;;;;5.43;100.00;97013.47;105602;1300;22460;-85
2022/12/25 05:43:53;;;;;;;7.90;4.10;;;;;;;5.39;100.00;97013.49;105662;1288;22585;-84
2022/12/25 05:46:25;;;;;;;7.50;3.90;;;;;;;5.32;100.00;97016.48;105659;1303;22500;-85
2022/12/25 05:49:00;;;;;;;8.10;3.90;;;;;;;5.29;100.00;97025.77;105518;1289;99581;-85
2022/12/25 05:51:32;;;;;;;7.40;3.70;;;;;;;5.25;100.00;97027.23;105649;1281;23025;-84
2022/12/25 05:54:20;;;;;;;7.00;3.60;;;;;;;5.23;100.00;97030.39;105605;1289;22292;-85
2022/12/25 05:56:52;;;;;;;8.40;3.80;;;;;;;5.24;100.00;97032.77;105615;1279;53665;-87
2022/12/25 05:59:23;;;;;;;6.30;3.60;;;;;;;5.29;100.00;97032.55;105511;1281;58433;-84
2022/12/25 06:01:55;;;;;;;8.10;3.00;;;;;;;5.34;100.00;97030.44;105720;1289;22500;-84
2022/12/25 06:04:29;;;;;;;5.20;3.00;;;;;;;5.33;100.00;97035.46;105714;1289;22583;-83
2022/12/25 06:07:03;;;;;;;4.70;3.20;;;;;;;5.28;100.00;97044.59;105632;1281;51798;-85
2022/12/25 06:09:35;;;;;;;7.20;3.60;;;;;;;5.23;100.00;97050.17;105523;1285;94121;-83
2022/12/25 06:12:10;;;;;;;6.10;3.10;;;;;;;5.18;100.00;97050.58;105650;1284;22487;-84
2022/12/25 06:14:44;;;;;;;7.50;3.40;;;;;;;5.15;100.00;97052.46;105694;1288;22497;-84
2022/12/25 06:17:21;;;;;;;6.30;3.70;;;;;;;5.15;100.00;97048.14;105633;1281;53654;-86
2022/12/25 06:19:55;;;;;;;7.40;3.50;;;;;;;5.15;100.00;97052.66;104052;1303;2011643;-85
2022/12/25 06:22:32;;;;;;;6.60;3.40;;;;;;;5.13;100.00;97055.67;105494;1303;22604;-86
2022/12/25 06:25:04;;;;;;;7.30;3.50;;;;;;;5.10;100.00;97046.79;105682;1288;24343;-86
2022/12/25 06:27:35;;;;;;;8.10;3.40;;;;;;;5.09;100.00;97047.71;105460;1303;98038;-84
2022/12/25 06:30:10;;;;;;;5.90;3.30;;;;;;;5.07;100.00;97045.31;105617;1303;24283;-84
2022/12/25 06:32:42;;;;;;;6.20;4.00;;;;;;;5.03;100.00;97048.44;105528;1303;22464;-84
2022/12/25 06:35:13;;;;;;;6.50;3.80;;;;;;;5.00;100.00;97055.67;105535;1297;22617;-84
2022/12/25 06:37:45;;;;;;;6.00;3.80;;;;;;;5.01;100.00;97073.92;104043;1302;1972670;-84
2022/12/25 06:40:20;;;;;;;9.40;4.60;;;;;;;5.00;100.00;97072.97;105479;1303;22499;-85
2022/12/25 06:42:51;;;;;;;6.80;3.80;;;;;;;4.99;100.00;97073.84;105554;1301;24334;-86
2022/12/25 06:45:23;;;;;;;7.70;3.90;;;;;;;4.95;100.00;97072.98;105537;1303;22466;-86
2022/12/25 06:47:54;;;;;;;6.90;3.30;;;;;;;4.93;100.00;97076.98;105348;1303;88509;-86
2022/12/25 06:50:25;;;;;;;5.80;3.60;;;;;;;4.94;100.00;97072.69;105518;1287;22456;-86
2022/12/25 06:52:59;;;;;;;5.60;3.70;;;;;;;4.93;100.00;97076.09;105479;1303;22456;-86
2022/12/25 06:55:30;;;;;;;6.50;3.60;;;;;;;4.93;100.00;97081.70;105540;1297;22506;-85
2022/12/25 06:58:01;;;;;;;9.40;3.60;;;;;;;4.92;100.00;97085.02;105462;1295;22553;-84
2022/12/25 07:00:32;;;;;;;7.10;3.80;;;;;;;4.91;100.00;97090.58;105616;1284;22506;-84
2022/12/25 07:03:05;;;;;;;5.40;3.50;;;;;;;4.91;100.00;97095.67;105747;1279;24004;-84
2022/12/25 07:05:38;;;;;;;7.40;3.70;;;;;;;4.90;100.00;97097.02;105813;1278;22473;-84
2022/12/25 07:08:09;;;;;;;6.10;3.60;;;;;;;4.86;100.00;97108.71;105661;1288;29918;-84
2022/12/25 07:10:41;;;;;;;5.00;3.50;;;;;;;4.81;100.00;97111.14;105685;1288;22739;-84
2022/12/25 07:13:12;;;;;;;7.90;4.20;;;;;;;4.79;100.00;97111.44;105525;1281;22538;-84
2022/12/25 07:15:43;;;;;;;9.00;4.00;;;;;;;4.78;100.00;97113.36;105693;1288;22585;-84
2022/12/25 07:18:15;;;;;;;7.00;4.20;;;;;;;4.78;100.00;97116.04;105477;1287;26362;-85
2022/12/25 07:20:47;;;;;;;6.20;4.10;;;;;;;4.75;100.00;97127.37;105704;1281;22501;-83
2022/12/25 07:23:19;;;;;;;7.90;4.90;;;;;;;4.69;100.00;97135.50;105594;1288;22492;-84
2022/12/25 07:25:59;;;;;;;8.40;4.70;;;;;;;4.67;100.00;97136.20;105680;1281;22537;-84
2022/12/25 07:28:31;;;;;;;7.30;4.50;;;;;;;4.69;100.00;97139.90;105512;1287;58308;-83
2022/12/25 07:31:07;;;;;;;5.50;4.10;;;;;;;4.74;100.00;97144.75;105630;1288;22895;-83
2022/12/25 07:33:38;;;;;;;6.50;3.80;;;;;;;5.18;100.00;97148.81;105633;1281;22557;-84
2022/12/25 07:36:11;;;;;;;7.60;3.90;;;;;;;5.64;100.00;97151.77;105627;1281;22528;-84
2022/12/25 07:38:42;;;;;;;6.70;3.50;;;;;;;6.16;100.00;97155.04;105518;1294;59669;-84
2022/12/25 07:41:14;;;;;;;6.10;3.50;;;;;;;6.65;99.96;97158.02;105722;1285;22480;-84
2022/12/25 07:43:49;;;;;;;6.10;3.70;;;;;;;6.93;99.15;97166.20;105802;1279;22496;-84
2022/12/25 07:46:21;;;;;;;5.40;3.60;;;;;;;7.13;98.42;97170.52;105725;1282;22464;-86
2022/12/25 07:48:54;;;;;;;6.00;3.20;;;;;;;7.26;97.32;97174.38;105508;1303;84891;-86
2022/12/25 07:51:28;;;;;;;8.20;3.80;;;;;;;7.03;96.48;97180.66;105571;1295;22711;-86
2022/12/25 07:54:00;;;;;;;5.20;2.80;;;;;;;6.84;96.24;97182.15;105589;1301;22745;-87
2022/12/25 07:56:31;;;;;;;5.80;3.40;;;;;;;6.81;96.68;97177.77;105565;1303;23188;-86
2022/12/25 07:59:02;;;;;;;7.20;3.30;;;;;;;6.67;96.09;97181.88;105549;1303;112888;-86
2022/12/25 08:01:34;;;;;;;5.90;3.30;;;;;;;6.35;95.81;97186.08;105729;1303;23286;-87
2022/12/25 08:04:06;;;;;;;4.70;2.70;;;;;;;6.20;96.42;97191.71;105675;1295;22467;-85
2022/12/25 08:06:37;;;;;;;6.00;3.30;;;;;;;6.10;96.83;97192.31;105798;1287;22463;-86
2022/12/25 08:09:14;;;;;;;5.90;3.40;;;;;;;6.04;96.90;97199.56;105652;1281;31250;-86
2022/12/25 08:11:48;;;;;;;7.00;3.90;;;;;;;6.10;97.46;97203.16;105741;1287;22503;-83
2022/12/25 08:14:19;;;;;;;6.20;3.80;;;;;;;6.08;97.42;97199.55;105675;1303;25773;-83
2022/12/25 08:16:51;;;;;;;7.90;4.80;;;;;;;6.07;97.33;97201.52;105545;1303;24258;-83
2022/12/25 08:19:23;;;;;;;8.10;4.10;;;;;;;6.04;97.25;97201.66;105491;1289;80234;-83
2022/12/25 08:21:57;;;;;;;8.80;4.90;;;;;;;6.00;97.34;97201.86;105642;1297;22499;-83
2022/12/25 08:24:29;;;;;;;7.30;3.70;;;;;;;6.01;97.62;97208.04;105626;1281;25171;-84
2022/12/25 08:27:03;;;;;;;8.70;4.50;;;;;;;6.02;97.51;97203.73;105646;1303;23554;-85
2022/12/25 08:29:36;;;;;;;7.00;4.10;;;;;;;6.04;97.46;97200.40;105561;1291;94497;-84
2022/12/25 08:32:08;;;;;;;8.50;4.20;;;;;;;6.06;97.60;97203.24;105684;1295;24317;-83
2022/12/25 08:34:41;;;;;;;5.90;4.00;;;;;;;5.99;97.13;97202.73;105663;1284;25283;-84
2022/12/25 08:37:12;;;;;;;6.90;3.50;;;;;;;5.91;97.27;97207.09;105652;1295;29926;-86
2022/12/25 08:39:43;;;;;;;5.80;3.50;;;;;;;5.89;97.40;97204.83;105539;1303;28024;-85
2022/12/25 08:42:15;;;;;;;5.30;3.20;;;;;;;5.87;97.32;97201.41;105640;1303;22684;-84
2022/12/25 08:44:50;;;;;;;7.90;4.30;;;;;;;5.85;97.25;97203.48;105599;1297;22486;-92
2022/12/25 08:47:22;;;;;;;7.80;3.50;;;;;;;5.89;97.61;97210.84;105536;1279;25432;-85
2022/12/25 08:49:56;;;;;;;7.40;3.90;;;;;;;5.89;97.57;97212.58;105589;1303;22494;-91
2022/12/25 08:52:30;;;;;;;7.40;3.80;;;;;;;5.85;97.00;97214.07;105608;1303;22463;-91
2022/12/25 08:55:02;;;;;;;5.90;3.90;;;;;;;5.81;97.04;97209.42;105599;1281;22676;-83
2022/12/25 08:57:33;;;;;;;9.20;4.70;;;;;;;5.79;96.96;97200.73;105678;1289;50768;-86
2022/12/25 09:00:08;;;;;;;8.60;4.40;;;;;;;5.78;97.18;97196.88;105816;1282;22539;-87
2022/12/25 09:02:41;;;;;;;6.70;4.20;;;;;;;5.77;97.14;97195.73;105675;1295;22518;-87
2022/12/25 09:05:13;;;;;;;7.70;4.00;;;;;;;5.78;97.24;97192.63;105691;1303;22480;-88
2022/12/25 09:07:45;;;;;;;7.30;3.70;;;;;;;5.79;97.19;97189.59;105627;1302;51343;-87
2022/12/25 09:10:16;;;;;;;8.80;4.00;;;;;;;5.81;97.25;97187.58;105606;1289;23647;-85
2022/12/25 09:12:49;;;;;;;7.00;3.70;;;;;;;5.83;97.07;97189.87;105699;1289;22467;-87
2022/12/25 09:15:21;;;;;;;7.70;4.00;;;;;;;5.83;97.14;97187.88;105619;1295;22552;-86
2022/12/25 09:17:54;;;;;;;5.60;3.30;;;;;;;5.84;96.96;97192.48;105510;1302;53499;-86
2022/12/25 09:20:26;;;;;;;7.30;3.80;;;;;;;5.89;97.19;97195.83;105585;1295;22523;-86
2022/12/25 09:22:58;;;;;;;7.40;3.80;;;;;;;5.97;97.15;97204.39;105610;1289;22469;-84
2022/12/25 09:25:33;;;;;;;6.80;4.20;;;;;;;6.07;97.29;97210.80;105575;1288;22573;-85
2022/12/25 09:28:09;;;;;;;7.70;4.00;;;;;;;6.18;97.00;97213.88;105556;1295;27864;-84
2022/12/25 09:30:41;;;;;;;6.90;3.70;;;;;;;6.25;96.92;97217.98;105650;1303;25465;-85
2022/12/25 09:33:13;;;;;;;8.30;4.20;;;;;;;6.49;97.41;97219.30;105607;1303;22479;-83
2022/12/25 09:35:44;;;;;;;7.10;3.60;;;;;;;6.79;97.33;97218.23;105580;1287;25263;-86
2022/12/25 09:38:16;;;;;;;6.10;3.50;;;;;;;7.03;96.89;97220.62;105618;1295;104708;-84
2022/12/25 09:41:06;;;;;;;7.10;4.30;;;;;;;7.18;96.40;97222.43;105704;1281;22520;-84
2022/12/25 09:43:42;;;;;;;6.20;3.50;;;;;;;7.36;95.77;97221.84;105701;1303;24848;-86
2022/12/25 09:46:20;;;;;;;8.30;4.10;;;;;;;7.45;95.21;97223.02;105665;1288;22481;-86
2022/12/25 09:49:03;;;;;;;5.50;3.40;;;;;;;7.60;94.96;97215.48;105513;1274;105067;-87
2022/12/25 09:51:43;;;;;;;6.00;3.40;;;;;;;7.79;94.73;97220.09;105609;1303;23682;-85
2022/12/25 09:54:34;;;;;;;11.00;4.80;;;;;;;7.85;94.25;97225.02;105671;1295;22599;-85
2022/12/25 09:57:12;;;;;;;5.10;3.20;;;;;;;8.00;93.75;97228.48;105496;1289;89820;-84
2022/12/25 09:59:46;;;;;;;6.70;3.70;;;;;;;8.08;93.31;97232.28;105560;1295;36521;-84
2022/12/25 10:02:42;;;;;;;6.50;3.30;;;;;;;8.19;93.54;97230.55;105583;1281;25452;-86
2022/12/25 10:05:41;;;;;;;6.50;3.40;;;;;;;8.28;92.94;97230.87;105607;1287;22927;-84
2022/12/25 10:08:33;;;;;;;6.20;3.30;;;;;;;8.37;92.43;97226.49;105673;1281;35620;-83
2022/12/25 10:11:32;;;;;;;5.50;2.90;;;;;;;8.47;92.28;97226.81;105595;1297;22502;-84
2022/12/25 10:14:17;;;;;;;8.00;3.50;;;;;;;8.56;91.80;97229.43;105758;1303;22582;-80
2022/12/25 10:17:02;;;;;;;10.00;4.50;;;;;;;8.61;91.34;97229.48;105866;1303;22509;-78
2022/12/25 10:19:44;;;;;;;8.00;4.30;;;;;;;8.77;91.65;97240.05;105880;1295;22464;-78
2022/12/25 10:22:22;;;;;;;7.90;4.00;;;;;;;8.94;91.21;97244.80;105870;1295;22482;-84
2022/12/25 10:25:00;;;;;;;8.80;3.30;;;;;;;9.00;90.08;97249.82;105824;1303;22569;-83
2022/12/25 10:27:35;;;;;;;8.40;3.50;;;;;;;9.05;89.34;97251.39;105853;1303;22503;-83
2022/12/25 10:30:17;;;;;;;5.10;2.70;;;;;;;9.06;88.36;97242.36;105797;1303;22594;-83
2022/12/25 10:32:51;;;;;;;5.30;2.80;;;;;;;8.99;86.94;97242.34;105611;1303;24253;-83
2022/12/25 10:35:26;;;;;;;6.30;2.70;;;;;;;8.97;87.28;97239.42;105624;1295;25015;-82
2022/12/25 10:38:02;;;;;;;7.00;2.90;;;;;;;8.99;86.34;97235.20;105502;1291;114047;-83
2022/12/25 10:40:45;;;;;;;6.90;2.70;;;;;;;9.03;86.31;97230.49;105591;1302;22562;-82
2022/12/25 10:43:24;;;;;;;7.80;2.60;;;;;;;9.00;85.07;97224.73;105577;1303;23123;-83
2022/12/25 10:45:57;;;;;;;6.60;2.60;;;;;;;9.03;85.41;97218.70;105691;1295;22628;-82
2022/12/25 10:48:40;;;;;;;6.30;2.60;;;;;;;9.03;84.27;97219.59;105542;1302;22640;-83
2022/12/25 10:51:14;;;;;;;6.70;3.50;;;;;;;8.96;83.83;97215.94;105606;1295;22522;-83
2022/12/25 10:53:49;;;;;;;7.60;3.30;;;;;;;9.07;84.34;97208.35;105584;1292;25304;-82
2022/12/25 10:56:23;;;;;;;6.30;2.80;;;;;;;9.02;82.78;97209.48;105720;1281;22479;-83
2022/12/25 10:59:07;;;;;;;6.60;2.90;;;;;;;8.91;82.30;97208.88;105510;1299;25570;-82
2022/12/25 11:01:40;;;;;;;5.50;2.80;;;;;;;8.88;82.50;97207.95;105603;1303;22482;-83
2022/12/25 11:04:22;;;;;;;6.80;3.00;;;;;;;8.89;82.20;97202.62;105641;1295;24284;-83
2022/12/25 11:07:05;;;;;;;8.50;2.60;;;;;;;8.92;82.08;97204.91;105671;1275;25327;-83
2022/12/25 11:09:40;;;;;;;6.80;3.00;;;;;;;8.97;82.23;97194.64;105628;1303;22480;-90
2022/12/25 11:12:30;;;;;;;8.60;3.20;;;;;;;9.13;82.25;97184.23;105648;1303;22481;-87
2022/12/25 11:15:05;;;;;;;5.60;2.80;;;;;;;9.24;82.07;97176.67;105636;1295;22516;-81
2022/12/25 11:17:38;;;;;;;6.00;2.60;;;;;;;9.33;82.11;97170.76;105691;1303;24900;-86
2022/12/25 11:20:21;;;;;;;8.30;2.50;;;;;;;9.34;80.96;97168.96;105623;1303;23536;-81
2022/12/25 11:22:53;;;;;;;5.80;2.60;;;;;;;9.31;80.77;97168.95;105667;1297;22486;-82
2022/12/25 11:25:29;;;;;;;7.20;3.00;;;;;;;9.43;81.91;97165.98;105637;1303;22490;-82
2022/12/25 11:28:05;;;;;;;7.70;3.50;;;;;;;9.55;81.57;97165.72;105583;1303;23045;-82
2022/12/25 11:30:44;;;;;;;7.40;3.60;;;;;;;9.57;81.80;97159.34;105660;1288;22475;-82
2022/12/25 11:33:18;;;;;;;5.90;3.50;;;;;;;9.55;80.68;97161.65;105656;1292;22456;-82
2022/12/25 11:35:55;;;;;;;5.80;2.80;;;;;;;9.43;79.85;97160.11;105727;1294;22465;-82
2022/12/25 11:38:28;;;;;;;10.40;4.30;;;;;;;9.18;79.42;97159.27;105637;1294;24927;-85
2022/12/25 11:41:05;;;;;;;10.00;4.50;;;;;;;8.71;79.42;97163.48;105654;1287;22477;-86
2022/12/25 11:43:43;;;;;;;7.10;4.00;;;;;;;8.25;80.35;97163.96;105759;1291;22541;-86
2022/12/25 11:46:21;;;;;;;7.60;3.60;;;;;;;7.91;81.42;97166.81;105611;1303;22498;-85
2022/12/25 11:48:57;;;;;;;6.30;3.50;;;;;;;7.65;81.99;97168.15;105703;1286;42905;-84
2022/12/25 11:51:37;;;;;;;6.40;3.60;;;;;;;7.49;82.85;97166.98;105790;1294;23349;-84
2022/12/25 11:54:23;;;;;;;7.30;3.80;;;;;;;7.44;83.46;97164.17;105781;1288;22472;-84
2022/12/25 11:57:04;;;;;;;7.40;3.70;;;;;;;7.48;84.02;97166.09;105721;1294;46900;-85
2022/12/25 11:59:41;;;;;;;5.70;3.10;;;;;;;7.50;84.33;97167.80;105773;1295;24066;-89
2022/12/25 12:02:25;;;;;;;8.80;3.60;;;;;;;7.52;84.52;97170.04;105821;1295;22593;-86
2022/12/25 12:05:10;;;;;;;8.30;3.40;;;;;;;7.64;84.87;97165.08;105974;1287;22520;-84
2022/12/25 12:07:51;;;;;;;4.50;2.60;;;;;;;7.87;85.30;97160.90;105905;1295;25482;-87
2022/12/25 12:10:29;;;;;;;7.60;3.10;;;;;;;7.92;83.90;97156.48;105918;1289;22524;-88
2022/12/25 12:13:12;;;;;;;7.50;4.10;;;;;;;7.92;83.36;97154.27;105952;1288;22505;-87
2022/12/25 12:15:48;;;;;;;7.40;4.10;;;;;;;8.01;83.31;97153.20;105872;1294;24266;-87
2022/12/25 12:18:35;;;;;;;8.40;3.00;;;;;;;8.13;83.14;97152.10;105723;1294;90253;-88
2022/12/25 12:21:19;;;;;;;8.70;3.70;;;;;;;8.35;83.39;97148.31;105668;1287;22471;-87
2022/12/25 12:23:57;;;;;;;7.70;3.10;;;;;;;8.59;82.94;97144.00;105667;1294;22468;-90
2022/12/25 12:26:36;;;;;;;5.70;3.00;;;;;;;8.79;82.58;97144.15;105785;1284;23161;-84
2022/12/25 12:29:22;;;;;;;6.60;3.10;;;;;;;8.96;82.59;97148.56;105682;1288;25455;-85
2022/12/25 12:32:06;;;;;;;4.90;2.70;;;;;;;9.11;82.10;97148.98;105712;1294;22471;-85
2022/12/25 12:34:48;;;;;;;6.30;3.00;;;;;;;9.19;81.13;97151.41;105824;1287;22537;-85
2022/12/25 12:37:27;;;;;;;;;;;;;;;9.20;80.42;97151.21;105706;1287;95512;-84
2022/12/25 12:40:02;;;;;;;23.00;9.40;;;;;;;9.25;80.50;97154.98;105694;1295;46811;-85
2022/12/25 12:42:49;;;;;;;25.40;10.70;;;;;;;9.29;80.14;97159.92;105753;1296;22485;-84
2022/12/25 12:45:25;;;;;;;10.60;5.10;;;;;;;9.34;80.24;97155.57;105706;1284;22490;-84
2022/12/25 12:47:57;;;;;;;6.70;3.10;;;;;;;9.38;79.91;97154.00;105597;1284;55081;-85
2022/12/25 12:50:34;;;;;;;11.40;5.10;;;;;;;9.29;79.13;97150.09;105781;1296;22481;-84
2022/12/25 12:53:29;;;;;;;18.30;8.90;;;;;;;9.33;79.63;97147.99;105723;1303;25032;-84
2022/12/25 12:56:18;;;;;;;9.60;4.90;;;;;;;9.51;80.03;97141.31;105724;1281;23120;-84
2022/12/25 12:58:51;;;;;;;8.80;4.10;;;;;;;9.59;79.87;97145.59;99560;1298;5630002;-88
2022/12/25 13:01:48;;;;;;;8.00;5.20;;;;;;;9.64;79.86;97146.71;105663;1273;23171;-84
2022/12/25 13:04:48;;;;;;;14.30;8.90;;;;;;;9.48;79.17;97138.76;105702;1303;22516;-87
2022/12/25 13:07:43;;;;;;;21.40;16.00;;;;;;;9.38;79.51;97138.55;105714;1293;43645;-87
2022/12/25 13:10:30;;;;;;;20.90;16.10;;;;;;;9.37;79.39;97141.19;105631;1303;46591;-87
2022/12/25 13:13:14;;;;;;;25.70;17.80;;;;;;;9.37;79.53;97140.08;105746;1275;22976;-89
2022/12/25 13:15:52;;;;;;;33.20;17.40;;;;;;;9.32;79.80;97134.18;105641;1295;23162;-87
2022/12/25 13:18:25;;;;;;;23.30;12.50;;;;;;;9.24;79.43;97135.93;105538;1302;112640;-86
2022/12/25 13:21:02;;;;;;;23.20;11.30;;;;;;;9.23;79.56;97137.03;105661;1303;22467;-88
2022/12/25 13:23:36;;;;;;;19.10;10.00;;;;;;;9.22;79.67;97136.72;105636;1298;22480;-88
2022/12/25 13:26:19;;;;;;;27.10;15.60;;;;;;;9.18;79.55;97142.05;105658;1303;22638;-87
2022/12/25 13:28:54;;;;;;;22.10;11.50;;;;;;;9.21;79.69;97137.45;105513;1300;117291;-87
2022/12/25 13:31:32;;;;;;;14.60;6.50;;;;;;;9.18;79.26;97139.61;105656;1303;22487;-88
2022/12/25 13:34:09;;;;;;;19.50;11.40;;;;;;;9.15;79.23;97136.83;105777;1303;23158;-89
2022/12/25 13:36:46;;;;;;;14.00;5.90;;;;;;;9.09;79.11;97136.32;105669;1289;22504;-89
2022/12/25 13:39:20;;;;;;;16.10;9.40;;;;;;;9.00;78.81;97138.43;105565;1289;31430;-88
2022/12/25 13:42:09;;;;;;;85.70;54.00;;;;;;;8.84;78.51;97139.75;105744;1302;22546;-88
2022/12/25 13:44:48;;;;;;;18.50;11.20;;;;;;;8.79;78.49;97148.13;105649;1301;23609;-89
2022/12/25 13:47:25;;;;;;;10.10;5.40;;;;;;;8.56;78.36;97147.71;105755;1275;49247;-90